createdAt,value
2019-03-29T00:00:00.923Z,7.24
2019-03-29T00:02:26.739Z,7.22
2019-03-29T00:04:52.949Z,7.25
2019-03-29T00:07:19.042Z,7.21
2019-03-29T00:09:44.900Z,7.16
2019-03-29T00:12:10.727Z,7.13
2019-03-29T00:14:36.672Z,7.06
2019-03-29T00:17:02.525Z,7.04
2019-03-29T00:19:28.399Z,7.09
2019-03-29T00:21:54.253Z,7.17
2019-03-29T00:24:20.091Z,7.20
2019-03-29T00:26:45.968Z,7.17
2019-03-29T00:29:11.790Z,7.14
2019-03-29T00:31:37.645Z,7.14
2019-03-29T00:34:03.465Z,7.13
2019-03-29T00:36:29.323Z,7.06
2019-03-29T00:38:55.189Z,6.96
2019-03-29T00:41:21.028Z,6.92
2019-03-29T00:43:46.874Z,6.95
2019-03-29T00:46:12.685Z,6.93
2019-03-29T00:48:38.542Z,6.88
2019-03-29T00:51:04.390Z,6.89
2019-03-29T00:53:30.243Z,6.87
2019-03-29T00:55:56.065Z,6.86
2019-03-29T00:58:22.299Z,6.89
2019-03-29T01:00:48.783Z,6.90
2019-03-29T01:03:14.642Z,6.90
2019-03-29T01:05:40.485Z,6.95
2019-03-29T01:08:08.305Z,6.94
2019-03-29T01:10:34.195Z,6.84
2019-03-29T01:13:00.048Z,6.84
2019-03-29T01:15:25.991Z,6.93
2019-03-29T01:17:51.825Z,6.94
2019-03-29T01:20:17.680Z,6.96
2019-03-29T01:22:43.520Z,6.97
2019-03-29T01:25:09.470Z,6.94
2019-03-29T01:27:35.415Z,6.95
2019-03-29T01:30:01.345Z,6.90
2019-03-29T01:32:27.199Z,6.92
2019-03-29T01:34:53.042Z,6.91
2019-03-29T01:37:19.766Z,6.86
2019-03-29T01:39:45.740Z,6.84
2019-03-29T01:42:11.698Z,6.79
2019-03-29T01:44:37.545Z,6.73
2019-03-29T01:47:04.061Z,6.68
2019-03-29T01:49:30.141Z,6.70
2019-03-29T01:51:56.003Z,6.78
2019-03-29T01:54:21.847Z,6.77
2019-03-29T01:56:47.804Z,6.75
2019-03-29T01:59:13.662Z,6.82
2019-03-29T02:01:39.493Z,6.76
2019-03-29T02:04:06.060Z,6.80
2019-03-29T02:06:32.100Z,6.90
2019-03-29T02:08:58.013Z,6.90
2019-03-29T02:11:23.864Z,6.89
2019-03-29T02:13:49.724Z,6.93
2019-03-29T02:16:15.570Z,6.92
2019-03-29T02:18:41.410Z,6.94
2019-03-29T02:21:07.245Z,6.84
2019-03-29T02:23:33.103Z,6.79
2019-03-29T02:25:58.935Z,6.75
2019-03-29T02:28:24.898Z,6.72
2019-03-29T02:30:50.752Z,6.68
2019-03-29T02:33:16.588Z,6.77
2019-03-29T02:35:42.467Z,6.82
2019-03-29T02:38:08.305Z,6.86
2019-03-29T02:40:34.152Z,6.81
2019-03-29T02:42:59.986Z,6.83
2019-03-29T02:45:25.950Z,6.82
2019-03-29T02:47:51.791Z,6.85
2019-03-29T02:50:17.626Z,6.89
2019-03-29T02:52:43.463Z,6.92
2019-03-29T02:55:09.443Z,6.92
2019-03-29T02:57:35.342Z,6.88
2019-03-29T03:00:01.845Z,6.84
2019-03-29T03:02:27.684Z,6.81
2019-03-29T03:04:53.529Z,6.76
2019-03-29T03:07:19.353Z,6.72
2019-03-29T03:09:45.201Z,6.71
2019-03-29T03:12:11.042Z,6.71
2019-03-29T03:14:36.902Z,6.67
2019-03-29T03:17:02.848Z,6.66
2019-03-29T03:19:28.693Z,6.66
2019-03-29T03:21:54.540Z,6.63
2019-03-29T03:24:20.391Z,6.61
2019-03-29T03:26:46.230Z,6.56
2019-03-29T03:29:12.060Z,6.51
2019-03-29T03:31:37.917Z,6.54
2019-03-29T03:34:03.778Z,6.50
2019-03-29T03:36:29.606Z,6.58
2019-03-29T03:38:55.443Z,6.61
2019-03-29T03:41:21.323Z,6.57
2019-03-29T03:43:47.144Z,6.64
2019-03-29T03:46:12.985Z,6.64
2019-03-29T03:48:38.825Z,6.71
2019-03-29T03:51:04.766Z,6.69
2019-03-29T03:53:30.701Z,6.60
2019-03-29T03:55:57.139Z,6.72
2019-03-29T03:58:23.805Z,6.68
2019-03-29T04:00:54.662Z,6.72
2019-03-29T04:03:21.219Z,6.72
2019-03-29T04:05:47.897Z,6.72
2019-03-29T04:08:13.819Z,6.91
2019-03-29T04:10:42.199Z,6.95
2019-03-29T04:13:07.565Z,7.01
2019-03-29T04:15:33.540Z,6.87
2019-03-29T04:17:59.389Z,6.87
2019-03-29T04:20:25.218Z,6.72
2019-03-29T04:22:51.050Z,6.91
2019-03-29T04:25:16.925Z,6.87
2019-03-29T04:27:42.752Z,6.84
2019-03-29T04:30:08.803Z,7.02
2019-03-29T04:32:34.673Z,6.93
2019-03-29T04:35:00.519Z,6.93
2019-03-29T04:37:26.371Z,6.94
2019-03-29T04:40:06.452Z,6.84
2019-03-29T04:42:20.004Z,6.73
2019-03-29T04:44:45.859Z,6.62
2019-03-29T04:47:11.712Z,6.63
2019-03-29T04:49:37.557Z,6.63
2019-03-29T04:52:03.413Z,6.64
2019-03-29T04:54:29.251Z,6.61
2019-03-29T04:56:55.084Z,6.64
2019-03-29T04:59:20.948Z,6.67
2019-03-29T05:01:46.785Z,6.71
2019-03-29T05:04:12.618Z,6.72
2019-03-29T05:06:38.486Z,6.73
2019-03-29T05:09:04.834Z,6.73
2019-03-29T05:11:30.678Z,6.75
2019-03-29T05:13:56.515Z,6.75
2019-03-29T05:16:22.366Z,6.62
2019-03-29T05:18:48.236Z,6.63
2019-03-29T05:21:14.111Z,6.60
2019-03-29T05:23:39.956Z,6.61
2019-03-29T05:26:05.809Z,6.67
2019-03-29T05:28:31.654Z,6.69
2019-03-29T05:30:57.495Z,6.66
2019-03-29T05:33:23.327Z,6.63
2019-03-29T05:35:49.197Z,6.63
2019-03-29T05:38:15.053Z,6.65
2019-03-29T05:40:41.008Z,6.63
2019-03-29T05:43:06.847Z,6.71
2019-03-29T05:45:34.808Z,6.71
2019-03-29T05:48:00.655Z,6.75
2019-03-29T05:50:26.555Z,6.81
2019-03-29T05:52:52.378Z,6.98
2019-03-29T05:55:18.773Z,7.01
2019-03-29T05:57:44.684Z,6.96
2019-03-29T06:00:12.629Z,6.97
2019-03-29T06:02:38.580Z,6.98
2019-03-29T06:05:04.538Z,7.07
2019-03-29T06:07:30.428Z,7.15
2019-03-29T06:09:56.279Z,7.19
2019-03-29T06:12:22.138Z,7.16
2019-03-29T06:14:47.997Z,7.21
2019-03-29T06:17:13.837Z,7.31
2019-03-29T06:19:39.814Z,7.36
2019-03-29T06:22:05.656Z,7.41
2019-03-29T06:24:31.509Z,7.46
2019-03-29T06:26:57.441Z,7.54
2019-03-29T06:29:23.315Z,7.73
2019-03-29T06:31:49.190Z,7.70
2019-03-29T06:34:15.014Z,7.78
2019-03-29T06:36:40.952Z,7.82
2019-03-29T06:39:07.953Z,7.82
2019-03-29T06:41:33.805Z,7.89
2019-03-29T06:43:59.638Z,7.95
2019-03-29T06:46:25.508Z,8.08
2019-03-29T06:48:51.355Z,8.13
2019-03-29T06:51:17.224Z,8.16
2019-03-29T06:53:43.034Z,8.20
2019-03-29T06:56:08.914Z,8.20
2019-03-29T06:58:34.764Z,8.31
2019-03-29T07:01:00.596Z,8.46
2019-03-29T07:03:26.427Z,8.63
2019-03-29T07:05:52.285Z,8.69
2019-03-29T07:08:18.127Z,8.79
2019-03-29T07:10:44.334Z,8.96
2019-03-29T07:13:10.184Z,9.34
2019-03-29T07:15:36.028Z,9.80
2019-03-29T07:18:01.880Z,10.14
2019-03-29T07:20:27.727Z,10.24
2019-03-29T07:22:53.555Z,10.24
2019-03-29T07:25:19.386Z,10.04
2019-03-29T07:27:52.066Z,10.25
2019-03-29T07:30:13.376Z,10.48
2019-03-29T07:32:39.241Z,10.42
2019-03-29T07:35:05.805Z,10.54
2019-03-29T07:37:31.655Z,10.71
2019-03-29T07:39:57.803Z,10.71
2019-03-29T07:42:23.640Z,10.45
2019-03-29T07:44:49.508Z,10.68
2019-03-29T07:47:15.448Z,10.62
2019-03-29T07:49:41.322Z,10.77
2019-03-29T07:52:07.178Z,10.84
2019-03-29T07:54:33.027Z,10.84
2019-03-29T07:56:58.873Z,10.82
2019-03-29T07:59:24.682Z,10.72
2019-03-29T08:01:50.531Z,10.65
2019-03-29T08:04:16.377Z,10.26
2019-03-29T08:06:42.212Z,10.32
2019-03-29T08:09:21.353Z,10.47
2019-03-29T08:11:46.249Z,10.47
2019-03-29T08:14:03.562Z,10.47
2019-03-29T08:16:29.441Z,10.06
2019-03-29T08:18:55.304Z,9.92
2019-03-29T08:21:21.553Z,9.72
2019-03-29T08:23:47.415Z,10.65
2019-03-29T08:26:13.242Z,10.65
2019-03-29T08:28:39.091Z,10.75
2019-03-29T08:31:05.041Z,10.80
2019-03-29T08:33:30.884Z,10.73
2019-03-29T08:35:56.709Z,11.21
2019-03-29T08:38:22.588Z,11.16
2019-03-29T08:40:48.426Z,10.74
2019-03-29T08:43:14.288Z,10.32
2019-03-29T08:45:40.223Z,10.31
2019-03-29T08:48:06.817Z,10.36
2019-03-29T08:50:32.824Z,10.35
2019-03-29T08:52:58.651Z,10.35
2019-03-29T08:55:24.528Z,10.49
2019-03-29T08:57:50.400Z,10.51
2019-03-29T09:00:20.019Z,10.56
2019-03-29T09:02:45.964Z,10.58
2019-03-29T09:05:11.906Z,11.05
2019-03-29T09:07:44.468Z,10.82
2019-03-29T09:10:21.483Z,10.65
2019-03-29T09:12:47.334Z,10.65
2019-03-29T09:15:13.155Z,10.77
2019-03-29T09:17:39.035Z,10.77
2019-03-29T09:20:05.183Z,10.75
2019-03-29T09:22:31.053Z,11.17
2019-03-29T09:24:56.886Z,11.68
2019-03-29T09:27:22.776Z,11.44
2019-03-29T09:29:48.635Z,11.48
2019-03-29T09:32:14.558Z,11.24
2019-03-29T09:34:40.408Z,11.43
2019-03-29T09:37:06.269Z,11.81
2019-03-29T09:39:32.133Z,11.98
2019-03-29T09:41:57.972Z,11.78
2019-03-29T09:44:23.936Z,11.98
2019-03-29T09:46:49.767Z,12.72
2019-03-29T09:49:15.634Z,12.91
2019-03-29T09:51:41.480Z,13.08
2019-03-29T09:54:07.334Z,13.09
2019-03-29T09:56:39.139Z,12.85
2019-03-29T09:59:01.041Z,12.66
2019-03-29T10:01:27.080Z,12.66
2019-03-29T10:03:53.067Z,12.74
2019-03-29T10:06:18.903Z,12.10
2019-03-29T10:08:44.745Z,11.87
2019-03-29T10:11:10.641Z,11.96
2019-03-29T10:13:36.498Z,12.09
2019-03-29T10:16:02.327Z,12.06
2019-03-29T10:18:28.187Z,12.32
2019-03-29T10:20:54.036Z,12.51
2019-03-29T10:23:19.877Z,12.47
2019-03-29T10:25:45.731Z,12.44
2019-03-29T10:28:11.590Z,12.87
2019-03-29T10:30:41.673Z,13.01
2019-03-29T10:33:07.618Z,12.71
2019-03-29T10:35:34.276Z,12.54
2019-03-29T10:38:00.227Z,12.24
2019-03-29T10:40:26.099Z,12.07
2019-03-29T10:42:58.190Z,12.16
2019-03-29T10:45:19.786Z,12.67
2019-03-29T10:47:45.615Z,12.67
2019-03-29T10:50:11.589Z,12.74
2019-03-29T10:52:37.423Z,12.49
2019-03-29T10:55:03.996Z,12.47
2019-03-29T10:57:29.857Z,12.47
2019-03-29T10:59:55.813Z,12.38
2019-03-29T11:02:21.661Z,12.56
2019-03-29T11:04:47.528Z,12.60
2019-03-29T11:07:13.387Z,13.03
2019-03-29T11:09:39.219Z,13.29
2019-03-29T11:12:05.271Z,13.21
2019-03-29T11:14:31.203Z,13.32
2019-03-29T11:16:57.046Z,13.06
2019-03-29T11:19:22.889Z,13.79
2019-03-29T11:21:48.741Z,13.81
2019-03-29T11:24:14.681Z,13.57
2019-03-29T11:26:40.537Z,14.09
2019-03-29T11:29:06.380Z,14.17
2019-03-29T11:31:32.238Z,13.96
2019-03-29T11:33:58.070Z,14.14
2019-03-29T11:36:23.941Z,14.30
2019-03-29T11:38:49.817Z,14.03
2019-03-29T11:41:15.760Z,14.63
2019-03-29T11:43:41.633Z,14.68
2019-03-29T11:46:07.488Z,14.93
2019-03-29T11:48:33.361Z,14.93
2019-03-29T11:50:59.296Z,15.61
2019-03-29T11:53:25.280Z,14.90
2019-03-29T11:55:51.118Z,14.93
2019-03-29T11:58:16.947Z,15.50
2019-03-29T12:00:42.796Z,15.59
2019-03-29T12:03:09.612Z,16.11
2019-03-29T12:05:36.412Z,16.22
2019-03-29T12:08:02.761Z,15.59
2019-03-29T12:10:28.696Z,15.59
2019-03-29T12:12:54.548Z,15.60
2019-03-29T12:15:20.583Z,16.09
2019-03-29T12:17:46.433Z,16.24
2019-03-29T12:20:12.274Z,15.47
2019-03-29T12:22:38.142Z,16.10
2019-03-29T12:25:05.178Z,16.15
2019-03-29T12:27:31.030Z,16.03
2019-03-29T12:29:56.983Z,16.34
2019-03-29T12:32:22.843Z,16.98
2019-03-29T12:34:48.688Z,16.50
2019-03-29T12:37:14.623Z,16.14
2019-03-29T12:39:40.480Z,16.38
2019-03-29T12:42:06.667Z,17.28
2019-03-29T12:44:32.539Z,17.12
2019-03-29T12:46:58.392Z,15.82
2019-03-29T12:49:24.245Z,16.14
2019-03-29T12:51:50.092Z,15.80
2019-03-29T12:54:15.967Z,15.97
2019-03-29T12:56:42.204Z,15.95
2019-03-29T12:59:08.212Z,16.50
2019-03-29T13:01:39.849Z,16.65
2019-03-29T13:04:02.231Z,16.82
2019-03-29T13:06:28.123Z,17.39
2019-03-29T13:08:54.013Z,17.30
2019-03-29T13:11:19.880Z,17.58
2019-03-29T13:13:45.736Z,18.23
2019-03-29T13:16:11.716Z,18.39
2019-03-29T13:18:37.572Z,18.39
2019-03-29T13:21:03.537Z,16.73
2019-03-29T13:23:29.430Z,17.11
2019-03-29T13:25:55.267Z,17.37
2019-03-29T13:28:21.249Z,18.08
2019-03-29T13:30:47.200Z,18.06
2019-03-29T13:33:13.141Z,18.63
2019-03-29T13:35:39.001Z,18.14
2019-03-29T13:38:05.048Z,17.88
2019-03-29T13:40:30.943Z,17.31
2019-03-29T13:42:56.780Z,17.71
2019-03-29T13:45:22.654Z,17.92
2019-03-29T13:47:48.511Z,17.39
2019-03-29T13:50:14.470Z,17.98
2019-03-29T13:52:42.206Z,18.33
2019-03-29T13:55:08.320Z,18.22
2019-03-29T13:57:34.295Z,19.08
2019-03-29T14:00:00.770Z,19.12
2019-03-29T14:02:26.648Z,18.35
2019-03-29T14:04:52.499Z,17.41
2019-03-29T14:07:18.372Z,17.73
2019-03-29T14:09:44.223Z,18.66
2019-03-29T14:12:10.112Z,19.57
2019-03-29T14:14:38.514Z,18.60
2019-03-29T14:17:03.744Z,18.06
2019-03-29T14:19:31.074Z,18.77
2019-03-29T14:21:56.982Z,19.40
2019-03-29T14:24:22.960Z,19.66
2019-03-29T14:26:48.816Z,17.79
2019-03-29T14:29:14.781Z,18.71
2019-03-29T14:31:40.666Z,18.83
2019-03-29T14:34:06.566Z,19.69
2019-03-29T14:36:32.418Z,19.91
2019-03-29T14:38:58.297Z,19.12
2019-03-29T14:41:24.146Z,18.70
2019-03-29T14:43:50.016Z,17.98
2019-03-29T14:46:15.853Z,17.69
2019-03-29T14:48:41.712Z,18.34
2019-03-29T14:51:07.566Z,18.21
2019-03-29T14:53:33.478Z,18.85
2019-03-29T14:55:59.309Z,19.21
2019-03-29T14:58:25.184Z,18.60
2019-03-29T15:00:51.360Z,18.91
2019-03-29T15:03:17.211Z,19.10
2019-03-29T15:05:43.063Z,19.46
2019-03-29T15:08:09.023Z,19.29
2019-03-29T15:10:34.889Z,20.28
2019-03-29T15:13:00.815Z,20.36
2019-03-29T15:15:26.687Z,20.21
2019-03-29T15:17:52.520Z,19.74
2019-03-29T15:20:18.569Z,19.15
2019-03-29T15:22:44.448Z,18.79
2019-03-29T15:25:10.287Z,19.61
2019-03-29T15:27:36.182Z,20.18
2019-03-29T15:30:04.748Z,19.57
2019-03-29T15:32:30.615Z,19.42
2019-03-29T15:34:56.523Z,19.82
2019-03-29T15:37:22.657Z,18.28
2019-03-29T15:39:48.524Z,19.59
2019-03-29T15:42:14.431Z,19.39
2019-03-29T15:44:40.305Z,19.53
2019-03-29T15:47:06.153Z,19.71
2019-03-29T15:49:32.008Z,19.05
2019-03-29T15:51:58.131Z,18.78
2019-03-29T15:54:24.021Z,18.39
2019-03-29T15:56:49.870Z,18.20
2019-03-29T15:59:15.731Z,18.57
2019-03-29T16:01:41.569Z,18.16
2019-03-29T16:04:07.422Z,18.19
2019-03-29T16:06:33.273Z,17.09
2019-03-29T16:08:59.140Z,17.04
2019-03-29T16:11:24.979Z,16.97
2019-03-29T16:13:52.138Z,16.31
2019-03-29T16:16:18.742Z,16.28
2019-03-29T16:18:45.133Z,16.13
2019-03-29T16:21:10.990Z,16.06
2019-03-29T16:23:36.820Z,16.11
2019-03-29T16:26:02.903Z,15.77
2019-03-29T16:28:28.767Z,15.67
2019-03-29T16:30:54.633Z,15.43
2019-03-29T16:33:20.499Z,14.99
2019-03-29T16:35:46.374Z,14.85
2019-03-29T16:38:12.236Z,14.87
2019-03-29T16:40:38.107Z,15.01
2019-03-29T16:43:03.994Z,14.80
2019-03-29T16:45:29.935Z,14.94
2019-03-29T16:47:55.789Z,14.70
2019-03-29T16:50:21.664Z,14.49
2019-03-29T16:52:47.486Z,14.41
2019-03-29T16:55:14.187Z,14.36
2019-03-29T16:57:40.731Z,14.43
2019-03-29T17:00:12.142Z,14.23
2019-03-29T17:02:37.344Z,14.32
2019-03-29T17:05:05.289Z,14.25
2019-03-29T17:07:31.166Z,14.23
2019-03-29T17:09:57.018Z,14.21
2019-03-29T17:12:22.861Z,14.18
2019-03-29T17:14:48.832Z,14.06
2019-03-29T17:17:14.702Z,13.96
2019-03-29T17:19:40.579Z,14.01
2019-03-29T17:22:06.426Z,14.03
2019-03-29T17:24:32.361Z,13.95
2019-03-29T17:26:58.221Z,13.85
2019-03-29T17:29:24.085Z,13.73
2019-03-29T17:31:49.933Z,13.67
2019-03-29T17:34:15.787Z,13.55
2019-03-29T17:36:41.649Z,13.55
2019-03-29T17:39:07.658Z,13.43
2019-03-29T17:41:33.560Z,13.31
2019-03-29T17:43:59.429Z,13.25
2019-03-29T17:46:25.304Z,13.17
2019-03-29T17:48:51.170Z,13.10
2019-03-29T17:51:17.041Z,12.93
2019-03-29T17:53:44.059Z,12.70
2019-03-29T17:56:10.029Z,12.55
2019-03-29T17:58:35.922Z,12.42
2019-03-29T18:01:03.115Z,12.34
2019-03-29T18:03:29.082Z,12.27
2019-03-29T18:05:56.490Z,12.14
2019-03-29T18:08:22.459Z,12.12
2019-03-29T18:10:48.323Z,12.19
2019-03-29T18:13:14.230Z,12.13
2019-03-29T18:15:40.085Z,12.03
2019-03-29T18:18:05.972Z,11.91
2019-03-29T18:20:31.872Z,11.79
2019-03-29T18:22:57.835Z,11.64
2019-03-29T18:25:23.817Z,11.55
2019-03-29T18:27:49.705Z,11.41
2019-03-29T18:30:19.376Z,11.32
2019-03-29T18:32:45.237Z,11.08
2019-03-29T18:35:11.903Z,11.12
2019-03-29T18:37:37.854Z,10.99
2019-03-29T18:40:04.534Z,10.91
2019-03-29T18:42:30.399Z,10.87
2019-03-29T18:44:56.461Z,10.84
2019-03-29T18:47:22.299Z,10.81
2019-03-29T18:49:48.179Z,10.82
2019-03-29T18:52:14.034Z,10.81
2019-03-29T18:54:39.868Z,10.75
2019-03-29T18:57:05.831Z,10.85
2019-03-29T18:59:31.673Z,10.91
2019-03-29T19:01:57.530Z,10.90
2019-03-29T19:04:23.382Z,10.82
2019-03-29T19:06:49.215Z,10.61
2019-03-29T19:09:15.099Z,10.51
2019-03-29T19:11:41.000Z,10.15
2019-03-29T19:14:06.935Z,10.23
2019-03-29T19:16:32.780Z,10.19
2019-03-29T19:19:09.479Z,10.18
2019-03-29T19:21:26.513Z,10.19
2019-03-29T19:23:52.376Z,10.23
2019-03-29T19:26:18.556Z,10.11
2019-03-29T19:28:44.500Z,10.02
2019-03-29T19:31:10.909Z,9.89
2019-03-29T19:33:36.899Z,9.57
2019-03-29T19:36:02.849Z,9.56
2019-03-29T19:38:28.860Z,9.61
2019-03-29T19:40:54.763Z,9.31
2019-03-29T19:43:20.673Z,9.76
2019-03-29T19:45:46.535Z,9.64
2019-03-29T19:48:12.427Z,9.72
2019-03-29T19:50:38.275Z,9.55
2019-03-29T19:53:04.133Z,9.41
2019-03-29T19:55:30.090Z,9.42
2019-03-29T19:57:56.021Z,9.12
2019-03-29T20:00:25.703Z,9.20
2019-03-29T20:02:51.594Z,9.02
2019-03-29T20:05:25.557Z,9.02
2019-03-29T20:07:52.245Z,8.81
2019-03-29T20:10:18.401Z,8.92
2019-03-29T20:12:44.305Z,8.66
2019-03-29T20:15:10.158Z,8.54
2019-03-29T20:17:36.030Z,8.28
2019-03-29T20:20:04.450Z,8.18
2019-03-29T20:22:30.334Z,8.04
2019-03-29T20:24:56.172Z,8.04
2019-03-29T20:27:22.037Z,7.94
2019-03-29T20:29:48.175Z,7.97
2019-03-29T20:32:14.040Z,7.82
2019-03-29T20:34:39.902Z,7.89
2019-03-29T20:37:08.854Z,8.00
2019-03-29T20:39:33.547Z,7.80
2019-03-29T20:41:59.387Z,7.80
2019-03-29T20:44:25.261Z,7.76
2019-03-29T20:46:51.107Z,7.62
2019-03-29T20:49:17.001Z,7.71
2019-03-29T20:51:42.836Z,7.64
2019-03-29T20:54:08.725Z,7.48
2019-03-29T20:56:34.580Z,7.46
2019-03-29T20:59:00.436Z,7.54
2019-03-29T21:01:26.290Z,7.44
2019-03-29T21:03:52.151Z,7.19
2019-03-29T21:06:18.026Z,6.86
2019-03-29T21:08:43.889Z,6.81
2019-03-29T21:11:09.786Z,6.92
2019-03-29T21:13:35.664Z,6.99
2019-03-29T21:16:01.542Z,7.20
2019-03-29T21:18:27.487Z,6.87
2019-03-29T21:20:53.361Z,6.88
2019-03-29T21:23:19.193Z,6.90
2019-03-29T21:25:45.108Z,6.85
2019-03-29T21:28:10.869Z,6.76
2019-03-29T21:30:36.839Z,6.48
2019-03-29T21:33:02.733Z,6.48
2019-03-29T21:35:28.569Z,6.38
2019-03-29T21:37:54.743Z,6.22
2019-03-29T21:40:20.636Z,6.22
2019-03-29T21:42:47.326Z,6.32
2019-03-29T21:45:27.676Z,6.08
2019-03-29T21:47:41.055Z,6.04
2019-03-29T21:50:07.515Z,5.56
2019-03-29T21:52:33.361Z,5.39
2019-03-29T21:54:59.205Z,5.96
2019-03-29T21:57:25.106Z,6.15
2019-03-29T21:59:51.722Z,6.23
2019-03-29T22:02:17.575Z,6.05
2019-03-29T22:04:43.463Z,5.76
2019-03-29T22:07:09.324Z,5.74
2019-03-29T22:09:37.046Z,5.45
2019-03-29T22:12:03.142Z,5.32
2019-03-29T22:14:28.996Z,5.55
2019-03-29T22:16:54.891Z,5.55
2019-03-29T22:19:20.723Z,5.60
2019-03-29T22:21:46.580Z,5.59
2019-03-29T22:24:14.321Z,5.53
2019-03-29T22:26:40.221Z,5.46
2019-03-29T22:29:06.247Z,5.06
2019-03-29T22:31:32.127Z,5.19
2019-03-29T22:33:57.953Z,5.19
2019-03-29T22:36:23.796Z,4.89
2019-03-29T22:38:49.666Z,4.57
2019-03-29T22:41:15.549Z,4.38
2019-03-29T22:43:41.401Z,4.41
2019-03-29T22:46:07.556Z,4.12
2019-03-29T22:48:33.414Z,4.18
2019-03-29T22:50:59.282Z,4.49
2019-03-29T22:53:25.098Z,4.71
2019-03-29T22:55:50.960Z,4.68
2019-03-29T22:58:18.703Z,4.82
2019-03-29T23:00:48.923Z,5.00
2019-03-29T23:03:15.276Z,5.00
2019-03-29T23:05:41.127Z,5.08
2019-03-29T23:08:06.985Z,5.01
2019-03-29T23:10:32.928Z,4.36
2019-03-29T23:12:58.749Z,4.49
2019-03-29T23:15:24.910Z,4.54
2019-03-29T23:17:50.762Z,4.44
2019-03-29T23:20:16.597Z,4.57
2019-03-29T23:22:42.428Z,4.59
2019-03-29T23:25:09.526Z,4.44
2019-03-29T23:27:35.505Z,4.44
2019-03-29T23:30:01.943Z,4.42
2019-03-29T23:32:27.779Z,4.39
2019-03-29T23:34:53.698Z,4.33
2019-03-29T23:37:19.645Z,4.37
2019-03-29T23:39:45.733Z,4.13
2019-03-29T23:42:11.724Z,4.08
2019-03-29T23:44:37.584Z,3.77
2019-03-29T23:47:03.467Z,4.06
2019-03-29T23:49:29.310Z,4.06
2019-03-29T23:51:55.173Z,3.91
2019-03-29T23:54:21.018Z,3.68
2019-03-29T23:56:47.181Z,3.68
2019-03-29T23:59:13.033Z,3.71
